Terminal Aerodrome Forecast
Issued by NWS Amarillo, TX

Home | Current Version | Previous Version | Text Only | Print | Product List | Glossary On
Versions: 1 2 3 4 5 6 7 8 9 10 11 12 13 14 15
859
FTUS44 KAMA 221120
TAFGUY
TAF
KGUY 221120Z 2212/2312 26010KT P6SM SKC
     FM221900 30010KT P6SM SKC
     FM230100 34012G20KT P6SM VCSH BKN050
     FM230600 01012KT P6SM SCT100=

USA.gov is the U.S. government's official web portal to all federal, state and local government web resources and services.